createdAt,value
2023-04-01T00:01:50.130Z,83.30
2023-04-01T00:04:17.126Z,82.49
2023-04-01T00:06:44.092Z,82.47
2023-04-01T00:09:11.054Z,82.95
2023-04-01T00:11:38.120Z,81.65
2023-04-01T00:14:05.029Z,82.19
2023-04-01T00:16:32.549Z,81.87
2023-04-01T00:18:59.514Z,82.13
2023-04-01T00:21:26.459Z,81.81
2023-04-01T00:23:53.295Z,81.56
2023-04-01T00:26:22.713Z,81.69
2023-04-01T00:28:50.338Z,80.77
2023-04-01T00:31:17.430Z,80.38
2023-04-01T00:33:44.282Z,80.84
2023-04-01T00:36:19.655Z,80.86
2023-04-01T00:38:47.456Z,80.60
2023-04-01T00:41:16.151Z,80.91
2023-04-01T00:43:47.692Z,81.18
2023-04-01T00:46:15.424Z,81.34
2023-04-01T00:48:48.934Z,81.46
2023-04-01T00:51:21.591Z,81.27
2023-04-01T00:53:51.422Z,81.19
2023-04-01T00:56:32.036Z,81.69
2023-04-01T00:59:03.032Z,81.50
2023-04-01T01:01:32.441Z,81.42
2023-04-01T01:03:59.934Z,81.13
2023-04-01T01:06:32.340Z,81.58
2023-04-01T01:12:12.389Z,80.46
2023-04-01T01:14:53.952Z,81.52
2023-04-01T01:20:15.714Z,81.31
2023-04-01T01:23:09.017Z,80.99
2023-04-01T01:25:36.188Z,80.88
2023-04-01T01:28:24.202Z,81.01
2023-04-01T01:34:02.438Z,80.14
2023-04-01T01:36:31.178Z,80.31
2023-04-01T01:38:59.094Z,80.52
2023-04-01T01:43:58.464Z,80.86
2023-04-01T01:46:28.854Z,80.82
2023-04-01T01:49:00.331Z,80.93
2023-04-01T01:51:28.917Z,80.46
2023-04-01T01:53:56.148Z,81.04
2023-04-01T01:56:27.998Z,80.62
2023-04-01T01:59:11.392Z,79.68
2023-04-01T02:01:43.842Z,80.19
2023-04-01T02:04:12.099Z,79.71
2023-04-01T02:06:44.130Z,79.83
2023-04-01T02:09:12.987Z,80.61
2023-04-01T02:11:49.565Z,80.75
2023-04-01T02:14:23.688Z,80.48
2023-04-01T02:17:06.042Z,79.88
2023-04-01T02:19:38.989Z,80.17
2023-04-01T02:22:10.157Z,80.42
2023-04-01T02:24:42.447Z,80.80
2023-04-01T02:27:11.899Z,80.12
2023-04-01T02:29:41.531Z,80.72
2023-04-01T02:32:10.330Z,80.43
2023-04-01T02:34:38.314Z,80.49
2023-04-01T02:37:05.709Z,79.92
2023-04-01T02:39:32.561Z,80.42
2023-04-01T02:41:59.526Z,80.57
2023-04-01T02:44:27.673Z,79.83
2023-04-01T02:46:54.685Z,80.33
2023-04-01T02:49:21.745Z,80.29
2023-04-01T02:51:48.544Z,80.03
2023-04-01T02:54:16.264Z,79.67
2023-04-01T02:56:43.070Z,78.87
2023-04-01T02:59:10.090Z,79.21
2023-04-01T03:01:36.917Z,79.71
2023-04-01T03:04:03.800Z,79.75
2023-04-01T03:08:56.553Z,79.03
2023-04-01T03:11:24.060Z,79.32
2023-04-01T03:13:51.073Z,79.59
2023-04-01T03:16:18.063Z,79.95
2023-04-01T03:18:45.405Z,79.98
2023-04-01T03:21:19.981Z,79.58
2023-04-01T03:23:46.877Z,79.48
2023-04-01T03:26:14.966Z,79.63
2023-04-01T03:28:41.973Z,79.77
2023-04-01T03:31:12.298Z,79.59
2023-04-01T03:33:39.825Z,79.87
2023-04-01T03:36:07.787Z,79.46
2023-04-01T03:38:35.979Z,79.93
2023-04-01T03:41:03.099Z,79.96
2023-04-01T03:45:58.751Z,79.77
2023-04-01T03:48:26.957Z,80.41
2023-04-01T03:50:53.947Z,79.37
2023-04-01T03:53:21.058Z,79.80
2023-04-01T03:55:48.278Z,79.68
2023-04-01T03:58:15.236Z,80.34
2023-04-01T04:00:45.441Z,81.46
2023-04-01T04:03:12.371Z,80.46
2023-04-01T04:05:47.384Z,80.34
2023-04-01T04:08:15.098Z,80.08
2023-04-01T04:10:42.628Z,80.18
2023-04-01T04:13:09.604Z,79.97
2023-04-01T04:15:36.441Z,79.34
2023-04-01T04:18:03.384Z,79.46
2023-04-01T04:22:56.825Z,79.76
2023-04-01T04:25:23.790Z,79.47
2023-04-01T04:27:50.945Z,79.54
2023-04-01T04:30:17.817Z,79.65
2023-04-01T04:32:45.411Z,79.84
2023-04-01T04:35:12.491Z,79.74
2023-04-01T04:37:39.306Z,80.13
2023-04-01T04:40:06.808Z,80.33
2023-04-01T04:42:33.557Z,80.44
2023-04-01T04:45:00.424Z,80.97
2023-04-01T04:47:27.252Z,81.07
2023-04-01T04:49:54.038Z,81.82
2023-04-01T04:52:20.890Z,81.90
2023-04-01T04:54:47.691Z,82.07
2023-04-01T04:57:14.490Z,82.63
2023-04-01T04:59:42.109Z,82.91
2023-04-01T05:02:09.493Z,83.04
2023-04-01T05:04:37.847Z,83.76
2023-04-01T05:07:04.630Z,83.61
2023-04-01T05:09:32.233Z,83.43
2023-04-01T05:11:59.135Z,83.52
2023-04-01T05:14:25.957Z,84.17
2023-04-01T05:16:52.775Z,83.30
2023-04-01T05:19:20.120Z,82.97
2023-04-01T05:21:46.914Z,82.62
2023-04-01T05:24:13.799Z,83.29
2023-04-01T05:26:40.555Z,83.57
2023-04-01T05:29:07.459Z,83.10
2023-04-01T05:31:37.240Z,83.01
2023-04-01T05:34:04.494Z,82.46
2023-04-01T05:36:32.664Z,82.28
2023-04-01T05:38:59.429Z,81.89
2023-04-01T05:41:26.401Z,81.16
2023-04-01T05:43:53.248Z,81.83
2023-04-01T05:46:20.446Z,80.57
2023-04-01T05:48:47.462Z,81.39
2023-04-01T05:51:15.942Z,80.97
2023-04-01T05:53:43.432Z,80.68
2023-04-01T05:56:13.404Z,80.78
2023-04-01T05:58:40.858Z,80.81
2023-04-01T06:01:14.108Z,80.65
2023-04-01T06:03:43.460Z,80.61
2023-04-01T06:06:24.312Z,79.99
2023-04-01T06:08:54.496Z,79.97
2023-04-01T06:11:32.291Z,79.52
2023-04-01T06:14:01.720Z,79.80
2023-04-01T06:16:32.292Z,79.10
2023-04-01T06:19:18.218Z,79.07
2023-04-01T06:22:27.368Z,79.47
2023-04-01T06:28:32.546Z,78.74
2023-04-01T06:31:05.176Z,78.77
2023-04-01T06:34:07.924Z,79.02
2023-04-01T06:36:46.980Z,78.75
2023-04-01T06:39:26.601Z,78.52
2023-04-01T06:42:02.156Z,78.83
2023-04-01T06:44:32.196Z,77.93
2023-04-01T06:47:18.655Z,78.01
2023-04-01T06:49:54.961Z,77.64
2023-04-01T06:52:29.214Z,76.70
2023-04-01T06:58:00.270Z,76.67
2023-04-01T07:03:34.391Z,76.86
2023-04-01T07:06:05.965Z,76.42
2023-04-01T07:08:39.701Z,77.01
2023-04-01T07:11:11.810Z,76.62
2023-04-01T07:13:39.537Z,76.99
2023-04-01T07:16:24.810Z,77.48
2023-04-01T07:18:59.290Z,77.30
2023-04-01T07:21:39.430Z,76.00
2023-04-01T07:24:18.597Z,75.47
2023-04-01T07:26:46.933Z,75.43
2023-04-01T07:29:15.849Z,76.63
2023-04-01T07:32:23.705Z,75.37
2023-04-01T07:35:08.935Z,75.41
2023-04-01T07:37:38.587Z,74.50
2023-04-01T07:40:32.036Z,73.83
2023-04-01T07:43:20.698Z,73.17
2023-04-01T07:45:58.717Z,75.61
2023-04-01T07:48:38.552Z,76.21
2023-04-01T07:51:05.312Z,75.72
2023-04-01T07:53:40.491Z,75.81
2023-04-01T07:56:24.833Z,75.50
2023-04-01T07:59:08.423Z,75.69
2023-04-01T08:01:40.888Z,75.85
2023-04-01T08:04:26.778Z,77.37
2023-04-01T08:06:56.705Z,78.63
2023-04-01T08:09:39.501Z,78.93
2023-04-01T08:12:39.479Z,77.76
2023-04-01T08:15:22.549Z,79.57
2023-04-01T08:18:25.085Z,79.85
2023-04-01T08:20:58.733Z,78.76
2023-04-01T08:23:35.072Z,80.09
2023-04-01T08:26:15.150Z,81.03
2023-04-01T08:28:53.679Z,82.97
2023-04-01T08:31:33.772Z,83.71
2023-04-01T08:34:06.184Z,82.75
2023-04-01T08:36:39.483Z,86.63
2023-04-01T08:39:15.934Z,86.41
2023-04-01T08:41:54.978Z,88.38
2023-04-01T08:44:39.553Z,89.23
2023-04-01T08:47:31.265Z,89.78
2023-04-01T08:53:32.122Z,90.86
2023-04-01T08:56:14.407Z,88.70
2023-04-01T08:59:02.674Z,87.20
2023-04-01T09:04:39.810Z,88.48
2023-04-01T09:07:16.378Z,87.78
2023-04-01T09:09:51.972Z,88.19
2023-04-01T09:15:39.667Z,86.41
2023-04-01T09:18:09.506Z,85.45
2023-04-01T09:20:39.565Z,85.62
2023-04-01T09:23:12.700Z,85.31
2023-04-01T09:26:10.497Z,84.08
2023-04-01T09:31:27.398Z,84.07
2023-04-01T09:34:12.405Z,83.82
2023-04-01T09:36:53.048Z,83.67
2023-04-01T09:39:39.655Z,83.54
2023-04-01T09:42:21.834Z,82.06
2023-04-01T09:45:10.411Z,82.05
2023-04-01T09:47:39.652Z,79.98
2023-04-01T09:50:39.607Z,79.49
2023-04-01T09:53:33.528Z,80.32
2023-04-01T09:56:28.613Z,80.35
2023-04-01T09:59:32.858Z,81.43
2023-04-01T10:02:34.894Z,81.99
2023-04-01T10:05:39.624Z,81.87
2023-04-01T10:08:34.411Z,82.40
2023-04-01T10:11:31.590Z,81.37
2023-04-01T10:13:58.320Z,78.02
2023-04-01T10:19:39.551Z,77.65
2023-04-01T10:22:27.185Z,77.97
2023-04-01T10:25:19.890Z,79.78
2023-04-01T10:28:04.332Z,78.41
2023-04-01T10:30:39.637Z,78.65
2023-04-01T10:33:30.932Z,78.57
2023-04-01T10:36:22.893Z,78.68
2023-04-01T10:38:52.683Z,80.81
2023-04-01T10:41:43.488Z,83.40
2023-04-01T10:44:39.673Z,84.59
2023-04-01T10:47:18.335Z,85.22
2023-04-01T10:50:23.041Z,82.97
2023-04-01T10:53:22.098Z,82.59
2023-04-01T10:55:55.714Z,84.67
2023-04-01T10:58:38.671Z,83.89
2023-04-01T11:01:39.663Z,83.00
2023-04-01T11:04:25.282Z,87.65
2023-04-01T11:07:07.366Z,88.35
2023-04-01T11:09:38.652Z,88.35
2023-04-01T11:12:05.451Z,89.71
2023-04-01T11:14:35.046Z,89.30
2023-04-01T11:17:36.651Z,91.39
2023-04-01T11:20:31.599Z,92.47
2023-04-01T11:23:16.752Z,92.54
2023-04-01T11:26:10.036Z,95.55
2023-04-01T11:28:39.774Z,95.51
2023-04-01T11:31:39.751Z,96.10
2023-04-01T11:37:23.708Z,95.49
2023-04-01T11:39:58.192Z,96.04
2023-04-01T11:42:39.927Z,99.54
2023-04-01T11:45:16.993Z,96.83
2023-04-01T11:48:11.808Z,100.00
2023-04-01T11:50:38.754Z,97.56
2023-04-01T11:53:37.018Z,98.07
2023-04-01T11:56:16.020Z,96.39
2023-04-01T11:59:11.892Z,96.15
2023-04-01T12:01:40.071Z,97.62
2023-04-01T12:04:12.876Z,94.72
2023-04-01T12:06:39.744Z,96.71
2023-04-01T12:12:28.732Z,96.31
2023-04-01T12:15:25.117Z,99.16
2023-04-01T12:18:24.262Z,96.04
2023-04-01T12:20:56.477Z,96.72
2023-04-01T12:23:42.928Z,99.40
2023-04-01T12:26:28.657Z,97.41
2023-04-01T12:29:20.250Z,96.12
2023-04-01T12:32:05.672Z,96.80
2023-04-01T12:34:39.942Z,96.14
2023-04-01T12:37:35.819Z,94.60
2023-04-01T12:40:24.106Z,93.69
2023-04-01T12:43:00.581Z,91.26
2023-04-01T12:48:42.333Z,90.72
2023-04-01T12:51:22.392Z,90.57
2023-04-01T12:53:59.817Z,91.11
2023-04-01T12:56:38.713Z,91.64
2023-04-01T12:59:17.365Z,92.99
2023-04-01T13:02:12.977Z,95.92
2023-04-01T13:05:17.721Z,95.98
2023-04-01T13:08:14.675Z,96.66
2023-04-01T13:11:03.913Z,96.57
2023-04-01T13:13:39.692Z,97.29
2023-04-01T13:16:27.795Z,100.00
2023-04-01T13:19:16.123Z,100.00
2023-04-01T13:22:12.921Z,100.00
2023-04-01T13:25:01.889Z,100.00
2023-04-01T13:27:39.937Z,99.54
2023-04-01T13:30:06.902Z,100.00
2023-04-01T13:35:19.538Z,100.00
2023-04-01T13:41:39.652Z,100.00
2023-04-01T13:44:18.831Z,100.00
2023-04-01T13:47:03.540Z,100.00
2023-04-01T13:49:42.173Z,100.00
2023-04-01T13:52:26.688Z,100.00
2023-04-01T13:55:02.718Z,100.00
2023-04-01T13:57:36.277Z,100.00
2023-04-01T14:00:23.768Z,100.00
2023-04-01T14:03:00.110Z,100.00
2023-04-01T14:05:43.164Z,100.00
2023-04-01T14:08:39.729Z,98.95
2023-04-01T14:11:18.090Z,100.00
2023-04-01T14:14:01.472Z,100.00
2023-04-01T14:16:39.711Z,100.00
2023-04-01T14:19:27.344Z,100.00
2023-04-01T14:22:13.183Z,100.00
2023-04-01T14:25:17.897Z,97.19
2023-04-01T14:27:47.775Z,93.02
2023-04-01T14:30:38.731Z,92.64
2023-04-01T14:33:05.576Z,96.96
2023-04-01T14:35:38.803Z,94.50
2023-04-01T14:38:26.246Z,93.79
2023-04-01T14:40:56.245Z,91.86
2023-04-01T14:43:39.737Z,95.42
2023-04-01T14:46:33.656Z,98.07
2023-04-01T14:49:15.264Z,99.95
2023-04-01T14:51:42.770Z,100.00
2023-04-01T14:54:12.560Z,100.00
2023-04-01T14:57:06.935Z,100.00
2023-04-01T14:59:39.737Z,100.00
2023-04-01T15:02:28.595Z,98.43
2023-04-01T15:05:01.389Z,100.00
2023-04-01T15:07:38.761Z,99.64
2023-04-01T15:10:11.716Z,99.97
2023-04-01T15:12:38.769Z,100.00
2023-04-01T15:15:37.170Z,99.59
2023-04-01T15:18:16.918Z,100.00
2023-04-01T15:20:48.199Z,99.24
2023-04-01T15:23:39.756Z,99.38
2023-04-01T15:26:32.166Z,100.00
2023-04-01T15:29:27.882Z,100.00
2023-04-01T15:32:03.759Z,98.01
2023-04-01T15:34:39.864Z,100.00
2023-04-01T15:37:39.747Z,100.00
2023-04-01T15:40:24.469Z,100.00
2023-04-01T15:43:13.432Z,100.00
2023-04-01T15:45:46.859Z,100.00
2023-04-01T15:48:39.720Z,100.00
2023-04-01T15:51:19.256Z,100.00
2023-04-01T15:54:25.714Z,100.00
2023-04-01T15:57:09.689Z,100.00
2023-04-01T15:59:39.275Z,99.10
2023-04-01T16:02:19.739Z,99.72
2023-04-01T16:05:07.481Z,100.00
2023-04-01T16:07:38.817Z,100.00
2023-04-01T16:10:39.798Z,99.53
2023-04-01T16:13:34.435Z,100.00
2023-04-01T16:16:24.990Z,100.00
2023-04-01T16:18:54.670Z,99.48
2023-04-01T16:21:38.812Z,98.50
2023-04-01T16:24:16.476Z,98.67
2023-04-01T16:27:02.930Z,97.61
2023-04-01T16:29:39.804Z,97.97
2023-04-01T16:32:29.119Z,97.49
2023-04-01T16:35:05.673Z,98.23
2023-04-01T16:37:39.753Z,98.54
2023-04-01T16:40:21.444Z,99.09
2023-04-01T16:42:54.370Z,98.60
2023-04-01T16:45:36.865Z,99.19
2023-04-01T16:48:29.705Z,99.10
2023-04-01T16:51:16.519Z,99.13
2023-04-01T16:53:49.771Z,98.80
2023-04-01T16:56:25.977Z,98.69
2023-04-01T16:59:14.597Z,98.98
2023-04-01T17:02:10.406Z,99.63
2023-04-01T17:04:39.998Z,99.86
2023-04-01T17:07:29.566Z,99.88
2023-04-01T17:10:26.362Z,100.00
2023-04-01T17:12:53.099Z,99.16
2023-04-01T17:15:39.923Z,99.09
2023-04-01T17:18:34.001Z,98.75
2023-04-01T17:21:11.697Z,99.33
2023-04-01T17:23:43.096Z,99.16
2023-04-01T17:26:24.379Z,98.79
2023-04-01T17:29:20.730Z,98.48
2023-04-01T17:31:53.799Z,97.96
2023-04-01T17:34:39.923Z,98.57
2023-04-01T17:37:14.549Z,99.46
2023-04-01T17:40:17.627Z,98.65
2023-04-01T17:42:44.730Z,99.06
2023-04-01T17:45:21.896Z,99.08
2023-04-01T17:47:57.456Z,99.09
2023-04-01T17:50:39.873Z,99.80
2023-04-01T17:53:27.866Z,100.00
2023-04-01T17:56:12.736Z,100.00
2023-04-01T17:59:08.725Z,100.00
2023-04-01T18:01:39.909Z,100.00
2023-04-01T18:04:24.386Z,99.85
2023-04-01T18:07:09.581Z,100.00
2023-04-01T18:09:39.838Z,100.00
2023-04-01T18:12:26.267Z,99.57
2023-04-01T18:15:04.065Z,99.62
2023-04-01T18:17:40.008Z,99.69
2023-04-01T18:20:12.509Z,99.96
2023-04-01T18:23:13.985Z,99.49
2023-04-01T18:25:49.390Z,99.66
2023-04-01T18:28:34.161Z,99.40
2023-04-01T18:31:11.464Z,99.97
2023-04-01T18:33:41.087Z,99.79
2023-04-01T18:36:24.592Z,100.00
2023-04-01T18:38:57.440Z,99.38
2023-04-01T18:41:35.845Z,100.00
2023-04-01T18:44:21.095Z,100.00
2023-04-01T18:47:02.243Z,99.79
2023-04-01T18:49:39.849Z,99.86
2023-04-01T18:52:30.295Z,100.00
2023-04-01T18:55:22.915Z,100.00
2023-04-01T18:57:57.910Z,99.79
2023-04-01T19:03:33.760Z,99.61
2023-04-01T19:06:09.621Z,99.31
2023-04-01T19:08:40.968Z,100.00
2023-04-01T19:11:28.472Z,99.81
2023-04-01T19:14:04.338Z,99.84
2023-04-01T19:16:42.512Z,99.66
2023-04-01T19:19:19.276Z,99.02
2023-04-01T19:21:54.412Z,99.11
2023-04-01T19:24:34.662Z,99.20
2023-04-01T19:27:19.648Z,99.51
2023-04-01T19:29:52.485Z,99.46
2023-04-01T19:32:40.287Z,99.74
2023-04-01T19:35:31.284Z,99.63
2023-04-01T19:38:06.828Z,99.21
2023-04-01T19:40:38.935Z,99.25
2023-04-01T19:43:15.536Z,99.15
2023-04-01T19:46:10.422Z,98.14
2023-04-01T19:51:36.765Z,97.95
2023-04-01T19:54:45.221Z,97.54
2023-04-01T19:57:24.941Z,98.20
2023-04-01T20:00:25.060Z,100.00
2023-04-01T20:03:22.892Z,100.00
2023-04-01T20:06:11.762Z,99.25
2023-04-01T20:08:45.551Z,99.27
2023-04-01T20:11:26.997Z,98.25
2023-04-01T20:14:31.753Z,98.66
2023-04-01T20:17:07.673Z,98.07
2023-04-01T20:19:44.507Z,98.10
2023-04-01T20:22:29.872Z,98.48
2023-04-01T20:25:06.438Z,97.60
2023-04-01T20:27:42.384Z,97.54
2023-04-01T20:30:39.821Z,98.09
2023-04-01T20:33:43.740Z,98.32
2023-04-01T20:36:19.785Z,98.17
2023-04-01T20:38:48.645Z,98.28
2023-04-01T20:41:24.322Z,98.06
2023-04-01T20:44:12.688Z,98.21
2023-04-01T20:46:48.046Z,98.73
2023-04-01T20:49:48.607Z,97.73
2023-04-01T20:52:15.319Z,97.99
2023-04-01T20:54:48.502Z,98.03
2023-04-01T20:57:31.720Z,97.32
2023-04-01T21:00:17.082Z,97.13
2023-04-01T21:02:48.632Z,97.39
2023-04-01T21:05:32.080Z,97.89
2023-04-01T21:08:26.428Z,97.23
2023-04-01T21:11:02.831Z,97.70
2023-04-01T21:13:48.999Z,96.85
2023-04-01T21:16:48.597Z,97.12
2023-04-01T21:19:34.067Z,97.29
2023-04-01T21:22:10.354Z,97.75
2023-04-01T21:24:48.583Z,97.76
2023-04-01T21:27:41.766Z,97.71
2023-04-01T21:30:40.354Z,97.50
2023-04-01T21:33:16.903Z,97.57
2023-04-01T21:35:48.639Z,97.02
2023-04-01T21:38:37.889Z,98.06
2023-04-01T21:41:33.565Z,97.24
2023-04-01T21:44:39.074Z,96.90
2023-04-01T21:47:31.713Z,97.00
2023-04-01T21:50:14.047Z,97.69
2023-04-01T21:52:48.551Z,98.22
2023-04-01T21:55:18.018Z,98.16
2023-04-01T21:57:48.570Z,98.12
2023-04-01T22:00:19.177Z,97.12
2023-04-01T22:02:48.647Z,96.92
2023-04-01T22:05:29.376Z,96.51
2023-04-01T22:08:08.112Z,96.45
2023-04-01T22:10:47.777Z,96.66
2023-04-01T22:13:23.158Z,96.68
2023-04-01T22:16:38.552Z,96.23
2023-04-01T22:19:27.122Z,95.61
2023-04-01T22:22:02.758Z,96.03
2023-04-01T22:24:43.438Z,96.00
2023-04-01T22:27:28.365Z,97.04
2023-04-01T22:30:22.905Z,96.74
2023-04-01T22:32:54.259Z,96.55
2023-04-01T22:35:48.498Z,96.30
2023-04-01T22:38:33.966Z,96.57
2023-04-01T22:41:41.993Z,96.75
2023-04-01T22:44:21.160Z,96.53
2023-04-01T22:47:11.528Z,96.50
2023-04-01T22:49:49.659Z,95.57
2023-04-01T22:55:26.167Z,96.17
2023-04-01T22:58:39.189Z,96.87
2023-04-01T23:01:11.933Z,96.92
2023-04-01T23:03:45.145Z,97.58
2023-04-01T23:06:32.572Z,97.63
2023-04-01T23:09:22.215Z,97.38
2023-04-01T23:11:57.121Z,97.77
2023-04-01T23:14:27.921Z,97.89
2023-04-01T23:17:36.843Z,97.87
2023-04-01T23:20:16.439Z,98.21
2023-04-01T23:22:48.552Z,97.63
2023-04-01T23:25:15.588Z,98.01
2023-04-01T23:27:48.548Z,97.30
2023-04-01T23:30:41.651Z,96.76
2023-04-01T23:33:20.705Z,97.16
2023-04-01T23:35:48.652Z,96.95
2023-04-01T23:38:16.562Z,98.37
2023-04-01T23:40:43.646Z,97.70
2023-04-01T23:43:28.138Z,98.40
2023-04-01T23:46:01.078Z,97.43
2023-04-01T23:48:39.047Z,97.40
2023-04-01T23:51:16.032Z,98.42
2023-04-01T23:56:13.233Z,98.77
2023-04-01T23:58:45.886Z,99.28
